createdAt,value
2022-12-24T00:01:05.423Z,4.00
2022-12-24T00:03:33.257Z,4.03
2022-12-24T00:06:08.489Z,4.14
2022-12-24T00:08:35.621Z,4.23
2022-12-24T00:11:03.432Z,4.31
2022-12-24T00:13:30.381Z,3.99
2022-12-24T00:15:57.136Z,3.50
2022-12-24T00:18:23.912Z,3.83
2022-12-24T00:20:51.160Z,4.10
2022-12-24T00:23:21.555Z,3.90
2022-12-24T00:25:48.714Z,3.64
2022-12-24T00:28:16.364Z,3.67
2022-12-24T00:30:43.429Z,3.55
2022-12-24T00:33:10.306Z,3.95
2022-12-24T00:35:38.982Z,4.15
2022-12-24T00:38:06.154Z,4.19
2022-12-24T00:40:33.557Z,4.33
2022-12-24T00:43:00.890Z,4.28
2022-12-24T00:45:28.141Z,4.11
2022-12-24T00:47:55.275Z,4.18
2022-12-24T00:50:22.221Z,4.18
2022-12-24T00:52:49.186Z,4.29
2022-12-24T00:55:15.977Z,4.23
2022-12-24T00:57:42.770Z,4.25
2022-12-24T01:00:10.435Z,4.28
2022-12-24T01:02:37.458Z,4.36
2022-12-24T01:05:10.511Z,4.05
2022-12-24T01:07:39.472Z,4.19
2022-12-24T01:10:09.291Z,3.98
2022-12-24T01:12:36.845Z,3.94
2022-12-24T01:15:04.859Z,3.69
2022-12-24T01:17:33.118Z,3.72
2022-12-24T01:19:59.945Z,3.82
2022-12-24T01:22:27.114Z,4.03
2022-12-24T01:24:53.861Z,3.88
2022-12-24T01:27:20.786Z,3.69
2022-12-24T01:29:47.532Z,3.14
2022-12-24T01:32:14.400Z,2.88
2022-12-24T01:34:41.459Z,3.41
2022-12-24T01:37:08.236Z,3.57
2022-12-24T01:39:35.201Z,3.78
2022-12-24T01:42:20.540Z,3.70
2022-12-24T01:44:51.473Z,3.90
2022-12-24T01:47:24.061Z,3.65
2022-12-24T01:49:56.424Z,3.50
2022-12-24T01:52:28.705Z,3.70
2022-12-24T01:55:00.657Z,3.59
2022-12-24T01:57:34.680Z,3.68
2022-12-24T02:00:07.692Z,3.74
2022-12-24T02:02:35.468Z,3.54
2022-12-24T02:05:09.087Z,2.82
2022-12-24T02:07:36.876Z,2.93
2022-12-24T02:10:05.427Z,3.00
2022-12-24T02:12:35.767Z,3.30
2022-12-24T02:15:06.510Z,3.51
2022-12-24T02:17:53.703Z,3.66
2022-12-24T02:20:26.323Z,3.39
2022-12-24T02:23:11.821Z,3.36
2022-12-24T02:25:51.149Z,3.45
2022-12-24T02:29:05.377Z,3.71
2022-12-24T02:31:35.058Z,2.86
2022-12-24T02:34:13.823Z,2.81
2022-12-24T02:36:51.086Z,2.48
2022-12-24T02:39:27.461Z,2.28
2022-12-24T02:42:05.922Z,2.75
2022-12-24T02:44:53.375Z,2.69
2022-12-24T02:47:23.091Z,2.99
2022-12-24T02:49:49.821Z,3.02
2022-12-24T02:52:33.663Z,3.13
2022-12-24T02:55:04.666Z,3.24
2022-12-24T02:57:51.853Z,3.45
2022-12-24T03:00:21.019Z,3.46
2022-12-24T03:03:14.770Z,3.41
2022-12-24T03:05:56.276Z,3.33
2022-12-24T03:08:36.935Z,3.33
2022-12-24T03:11:15.411Z,3.41
2022-12-24T03:13:44.023Z,3.35
2022-12-24T03:16:15.239Z,3.36
2022-12-24T03:18:46.124Z,3.37
2022-12-24T03:21:29.771Z,3.16
2022-12-24T03:23:57.710Z,2.94
2022-12-24T03:26:25.915Z,2.89
2022-12-24T03:28:52.994Z,3.02
2022-12-24T03:31:20.606Z,2.98
2022-12-24T03:33:48.485Z,2.95
2022-12-24T03:36:15.273Z,2.45
2022-12-24T03:38:42.549Z,2.37
2022-12-24T03:41:09.263Z,2.24
2022-12-24T03:43:36.038Z,2.01
2022-12-24T03:46:07.788Z,2.11
2022-12-24T03:48:35.577Z,2.34
2022-12-24T03:51:03.917Z,2.31
2022-12-24T03:53:31.345Z,2.49
2022-12-24T03:55:58.517Z,2.56
2022-12-24T03:58:25.348Z,2.52
2022-12-24T04:00:54.032Z,2.57
2022-12-24T04:03:21.173Z,2.59
2022-12-24T04:05:48.005Z,2.79
2022-12-24T04:08:14.773Z,2.72
2022-12-24T04:10:41.541Z,2.45
2022-12-24T04:13:08.269Z,2.69
2022-12-24T04:15:35.134Z,2.88
2022-12-24T04:18:01.938Z,3.17
2022-12-24T04:20:28.685Z,3.31
2022-12-24T04:22:56.360Z,3.23
2022-12-24T04:25:23.327Z,3.28
2022-12-24T04:27:50.015Z,2.81
2022-12-24T04:30:16.837Z,2.38
2022-12-24T04:32:43.800Z,2.39
2022-12-24T04:35:10.574Z,2.05
2022-12-24T04:37:37.411Z,2.31
2022-12-24T04:40:04.548Z,2.59
2022-12-24T04:42:31.454Z,2.86
2022-12-24T04:44:58.321Z,3.04
2022-12-24T04:47:25.169Z,3.24
2022-12-24T04:49:51.943Z,3.14
2022-12-24T04:52:18.892Z,2.96
2022-12-24T04:54:45.638Z,2.84
2022-12-24T04:57:12.461Z,2.72
2022-12-24T04:59:39.299Z,2.51
2022-12-24T05:02:06.285Z,2.70
2022-12-24T05:04:33.137Z,2.87
2022-12-24T05:06:59.995Z,2.74
2022-12-24T05:09:26.814Z,2.85
2022-12-24T05:11:53.599Z,2.98
2022-12-24T05:14:20.513Z,2.78
2022-12-24T05:16:47.478Z,3.03
2022-12-24T05:19:14.683Z,3.16
2022-12-24T05:21:41.474Z,3.12
2022-12-24T05:24:30.111Z,3.05
2022-12-24T05:26:58.726Z,2.86
2022-12-24T05:29:25.650Z,2.82
2022-12-24T05:31:52.528Z,2.89
2022-12-24T05:34:19.329Z,2.86
2022-12-24T05:36:46.419Z,2.73
2022-12-24T05:39:17.738Z,2.69
2022-12-24T05:41:45.644Z,2.35
2022-12-24T05:44:12.569Z,2.68
2022-12-24T05:46:39.788Z,1.79
2022-12-24T05:49:06.553Z,1.97
2022-12-24T05:51:33.444Z,2.18
2022-12-24T05:54:00.186Z,1.47
2022-12-24T05:56:27.541Z,2.11
2022-12-24T05:58:54.934Z,2.37
2022-12-24T06:01:23.173Z,2.52
2022-12-24T06:03:51.231Z,2.63
2022-12-24T06:06:21.737Z,2.70
2022-12-24T06:08:50.341Z,2.61
2022-12-24T06:11:19.817Z,2.13
2022-12-24T06:13:46.633Z,2.44
2022-12-24T06:16:18.855Z,1.85
2022-12-24T06:18:46.218Z,1.61
2022-12-24T06:21:13.349Z,1.95
2022-12-24T06:23:42.077Z,1.59
2022-12-24T06:26:12.827Z,1.96
2022-12-24T06:28:40.202Z,2.22
2022-12-24T06:31:11.214Z,2.29
2022-12-24T06:33:38.205Z,2.12
2022-12-24T06:36:16.613Z,1.76
2022-12-24T06:38:44.577Z,2.10
2022-12-24T06:41:11.473Z,1.83
2022-12-24T06:43:38.217Z,1.48
2022-12-24T06:46:05.517Z,1.39
2022-12-24T06:48:32.374Z,1.35
2022-12-24T06:51:02.372Z,1.78
2022-12-24T06:53:30.116Z,1.93
2022-12-24T06:56:04.369Z,2.22
2022-12-24T06:58:31.582Z,2.47
2022-12-24T07:00:58.419Z,2.70
2022-12-24T07:03:25.360Z,2.28
2022-12-24T07:05:52.165Z,2.64
2022-12-24T07:08:18.918Z,2.64
2022-12-24T07:10:52.222Z,2.97
2022-12-24T07:13:21.028Z,3.03
2022-12-24T07:15:47.777Z,3.37
2022-12-24T07:18:14.900Z,3.64
2022-12-24T07:20:43.035Z,3.75
2022-12-24T07:23:09.926Z,4.13
2022-12-24T07:25:36.638Z,4.09
2022-12-24T07:28:03.555Z,4.07
2022-12-24T07:30:30.327Z,4.30
2022-12-24T07:32:57.133Z,4.36
2022-12-24T07:35:23.852Z,4.26
2022-12-24T07:37:50.605Z,4.41
2022-12-24T07:40:17.553Z,3.91
2022-12-24T07:42:44.344Z,4.11
2022-12-24T07:45:11.437Z,4.19
2022-12-24T07:47:38.308Z,4.40
2022-12-24T07:50:06.308Z,4.50
2022-12-24T07:52:33.072Z,4.68
2022-12-24T07:54:59.940Z,4.72
2022-12-24T07:57:26.741Z,4.96
2022-12-24T07:59:53.690Z,5.22
2022-12-24T08:02:20.614Z,5.31
2022-12-24T08:04:47.645Z,5.33
2022-12-24T08:07:14.507Z,5.37
2022-12-24T08:09:41.238Z,5.45
2022-12-24T08:12:08.235Z,5.62
2022-12-24T08:14:35.155Z,5.83
2022-12-24T08:17:01.823Z,5.97
2022-12-24T08:19:28.620Z,5.94
2022-12-24T08:21:55.577Z,5.74
2022-12-24T08:24:22.311Z,5.69
2022-12-24T08:26:49.248Z,5.91
2022-12-24T08:29:15.935Z,5.88
2022-12-24T08:31:43.077Z,5.87
2022-12-24T08:34:11.015Z,6.09
2022-12-24T08:36:37.868Z,6.04
2022-12-24T08:39:04.733Z,6.00
2022-12-24T08:41:31.972Z,6.07
2022-12-24T08:43:59.803Z,6.17
2022-12-24T08:46:27.060Z,6.21
2022-12-24T08:48:54.046Z,6.40
2022-12-24T08:54:05.494Z,6.20
2022-12-24T08:56:32.377Z,6.43
2022-12-24T08:58:59.207Z,6.22
2022-12-24T09:01:26.161Z,6.11
2022-12-24T09:03:53.229Z,6.19
2022-12-24T09:06:21.835Z,6.01
2022-12-24T09:08:48.707Z,6.08
2022-12-24T09:11:18.248Z,6.25
2022-12-24T09:13:45.329Z,6.11
2022-12-24T09:16:13.134Z,6.22
2022-12-24T09:18:40.447Z,6.24
2022-12-24T09:21:11.403Z,6.27
2022-12-24T09:23:41.923Z,6.14
2022-12-24T09:26:23.596Z,5.97
2022-12-24T09:28:51.582Z,5.93
2022-12-24T09:31:19.301Z,6.24
2022-12-24T09:33:48.052Z,5.81
2022-12-24T09:36:15.009Z,6.17
2022-12-24T09:38:41.914Z,5.92
2022-12-24T09:41:32.137Z,6.01
2022-12-24T09:44:20.896Z,6.21
2022-12-24T09:46:50.459Z,6.28
2022-12-24T09:49:24.959Z,6.09
2022-12-24T09:52:00.258Z,6.47
2022-12-24T09:54:35.061Z,6.68
2022-12-24T09:57:08.425Z,6.80
2022-12-24T09:59:46.557Z,6.16
2022-12-24T10:02:19.711Z,6.33
2022-12-24T10:04:49.033Z,6.15
2022-12-24T10:07:48.261Z,6.65
2022-12-24T10:10:35.134Z,6.69
2022-12-24T10:13:33.452Z,6.78
2022-12-24T10:16:07.571Z,6.47
2022-12-24T10:18:48.896Z,6.63
2022-12-24T10:21:38.269Z,6.51
2022-12-24T10:24:17.007Z,6.58
2022-12-24T10:26:56.509Z,7.01
2022-12-24T10:29:27.659Z,7.36
2022-12-24T10:32:09.546Z,7.32
2022-12-24T10:34:46.324Z,7.22
2022-12-24T10:37:16.935Z,7.17
2022-12-24T10:39:43.886Z,7.15
2022-12-24T10:42:13.423Z,7.49
2022-12-24T10:44:40.407Z,7.46
2022-12-24T10:47:10.667Z,7.69
2022-12-24T10:50:04.456Z,7.67
2022-12-24T10:52:37.845Z,7.23
2022-12-24T10:55:14.014Z,7.48
2022-12-24T10:57:41.061Z,7.66
2022-12-24T11:00:21.847Z,7.48
2022-12-24T11:02:50.283Z,7.15
2022-12-24T11:05:33.940Z,7.52
2022-12-24T11:08:07.059Z,7.64
2022-12-24T11:10:40.072Z,8.01
2022-12-24T11:13:37.292Z,7.55
2022-12-24T11:16:23.897Z,7.74
2022-12-24T11:18:54.772Z,7.45
2022-12-24T11:21:36.949Z,7.63
2022-12-24T11:24:13.819Z,7.80
2022-12-24T11:26:43.431Z,8.02
2022-12-24T11:29:15.058Z,7.49
2022-12-24T11:31:43.873Z,7.97
2022-12-24T11:34:22.609Z,8.28
2022-12-24T11:36:51.014Z,8.41
2022-12-24T11:39:23.874Z,8.25
2022-12-24T11:41:52.978Z,8.56
2022-12-24T11:44:26.715Z,8.89
2022-12-24T11:46:58.636Z,9.04
2022-12-24T11:49:28.672Z,9.30
2022-12-24T11:52:01.152Z,9.23
2022-12-24T11:54:31.386Z,9.33
2022-12-24T11:57:00.499Z,9.39
2022-12-24T11:59:33.497Z,9.59
2022-12-24T12:02:25.143Z,9.62
2022-12-24T12:04:58.745Z,9.54
2022-12-24T12:07:30.762Z,9.30
2022-12-24T12:10:11.527Z,9.34
2022-12-24T12:12:43.277Z,9.34
2022-12-24T12:15:16.684Z,9.53
2022-12-24T12:18:00.311Z,9.70
2022-12-24T12:20:40.717Z,9.70
2022-12-24T12:23:29.356Z,9.57
2022-12-24T12:25:56.122Z,9.50
2022-12-24T12:28:32.252Z,9.34
2022-12-24T12:31:22.075Z,9.61
2022-12-24T12:34:00.568Z,9.87
2022-12-24T12:36:39.329Z,9.42
2022-12-24T12:39:06.513Z,9.45
2022-12-24T12:41:51.349Z,9.92
2022-12-24T12:44:42.171Z,10.08
2022-12-24T12:47:23.841Z,9.81
2022-12-24T12:50:09.049Z,10.08
2022-12-24T12:52:54.544Z,9.86
2022-12-24T12:55:51.768Z,9.85
2022-12-24T12:58:36.081Z,9.91
2022-12-24T13:01:15.202Z,9.84
2022-12-24T13:03:59.119Z,9.67
2022-12-24T13:06:34.534Z,9.49
2022-12-24T13:09:16.269Z,9.41
2022-12-24T13:12:01.717Z,9.63
2022-12-24T13:14:32.461Z,9.75
2022-12-24T13:17:28.859Z,9.44
2022-12-24T13:20:17.416Z,8.33
2022-12-24T13:23:02.228Z,8.74
2022-12-24T13:25:37.318Z,8.51
2022-12-24T13:28:22.647Z,8.57
2022-12-24T13:31:24.237Z,8.69
2022-12-24T13:33:54.063Z,8.28
2022-12-24T13:36:21.701Z,8.44
2022-12-24T13:38:53.226Z,8.63
2022-12-24T13:41:38.147Z,8.93
2022-12-24T13:44:12.980Z,8.71
2022-12-24T13:46:56.669Z,9.01
2022-12-24T13:49:36.517Z,8.70
2022-12-24T13:52:15.702Z,8.70
2022-12-24T13:54:50.452Z,8.92
2022-12-24T13:57:29.359Z,8.74
2022-12-24T14:00:05.299Z,8.83
2022-12-24T14:02:47.787Z,8.42
2022-12-24T14:05:25.552Z,8.76
2022-12-24T14:07:54.282Z,8.26
2022-12-24T14:10:25.740Z,8.54
2022-12-24T14:12:53.638Z,8.95
2022-12-24T14:15:46.438Z,8.62
2022-12-24T14:18:22.429Z,8.93
2022-12-24T14:20:56.460Z,9.20
2022-12-24T14:23:41.191Z,9.20
2022-12-24T14:26:15.242Z,9.39
2022-12-24T14:28:47.162Z,9.18
2022-12-24T14:31:16.904Z,9.16
2022-12-24T14:33:44.633Z,8.51
2022-12-24T14:36:14.526Z,8.48
2022-12-24T14:38:43.837Z,8.50
2022-12-24T14:41:33.224Z,8.75
2022-12-24T14:44:18.708Z,8.09
2022-12-24T14:47:06.841Z,8.04
2022-12-24T14:49:49.221Z,8.00
2022-12-24T14:53:04.296Z,7.91
2022-12-24T14:55:29.564Z,7.84
2022-12-24T14:58:25.777Z,8.11
2022-12-24T15:00:56.231Z,8.30
2022-12-24T15:03:26.207Z,8.55
2022-12-24T15:05:57.572Z,8.75
2022-12-24T15:08:39.156Z,8.77
2022-12-24T15:11:08.811Z,8.98
2022-12-24T15:13:39.041Z,9.05
2022-12-24T15:16:09.395Z,9.16
2022-12-24T15:18:42.116Z,9.13
2022-12-24T15:21:18.304Z,9.00
2022-12-24T15:23:49.010Z,9.02
2022-12-24T15:26:21.542Z,9.08
2022-12-24T15:28:48.825Z,9.15
2022-12-24T15:31:20.172Z,9.26
2022-12-24T15:33:48.497Z,9.07
2022-12-24T15:36:18.088Z,9.29
2022-12-24T15:38:47.602Z,9.56
2022-12-24T15:41:31.234Z,9.66
2022-12-24T15:44:02.748Z,9.70
2022-12-24T15:46:32.254Z,9.68
2022-12-24T15:49:01.961Z,9.57
2022-12-24T15:51:40.037Z,9.33
2022-12-24T15:54:14.044Z,8.88
2022-12-24T15:56:47.184Z,8.35
2022-12-24T15:59:25.740Z,8.10
2022-12-24T16:01:52.809Z,8.43
2022-12-24T16:04:26.809Z,7.89
2022-12-24T16:07:03.411Z,8.35
2022-12-24T16:09:48.088Z,8.52
2022-12-24T16:12:22.498Z,8.60
2022-12-24T16:14:59.489Z,8.67
2022-12-24T16:17:34.188Z,8.57
2022-12-24T16:20:05.787Z,8.39
2022-12-24T16:22:33.188Z,8.67
2022-12-24T16:25:01.653Z,8.23
2022-12-24T16:27:28.477Z,8.52
2022-12-24T16:29:55.197Z,8.53
2022-12-24T16:32:34.550Z,8.59
2022-12-24T16:35:03.440Z,8.61
2022-12-24T16:37:30.206Z,8.73
2022-12-24T16:39:57.303Z,8.75
2022-12-24T16:42:42.577Z,8.52
2022-12-24T16:45:10.574Z,8.64
2022-12-24T16:47:42.895Z,8.69
2022-12-24T16:50:16.638Z,8.80
2022-12-24T16:52:43.674Z,8.05
2022-12-24T16:55:14.203Z,8.00
2022-12-24T16:57:42.460Z,8.22
2022-12-24T17:00:15.675Z,8.31
2022-12-24T17:02:42.715Z,8.43
2022-12-24T17:05:11.109Z,8.39
2022-12-24T17:07:43.287Z,8.27
2022-12-24T17:10:12.930Z,7.87
2022-12-24T17:12:39.805Z,7.92
2022-12-24T17:15:08.266Z,7.97
2022-12-24T17:17:35.573Z,8.01
2022-12-24T17:20:04.703Z,8.30
2022-12-24T17:22:31.773Z,8.28
2022-12-24T17:24:58.734Z,8.08
2022-12-24T17:27:25.778Z,8.27
2022-12-24T17:29:52.868Z,8.32
2022-12-24T17:32:19.749Z,8.32
2022-12-24T17:34:46.693Z,8.60
2022-12-24T17:37:13.843Z,8.79
2022-12-24T17:39:40.842Z,8.61
2022-12-24T17:42:07.612Z,8.60
2022-12-24T17:44:34.396Z,9.00
2022-12-24T17:47:02.146Z,9.14
2022-12-24T17:49:28.983Z,9.41
2022-12-24T17:51:56.109Z,9.21
2022-12-24T17:54:23.178Z,9.55
2022-12-24T17:56:49.942Z,9.55
2022-12-24T17:59:16.783Z,9.69
2022-12-24T18:01:43.711Z,9.59
2022-12-24T18:04:10.734Z,9.74
2022-12-24T18:06:44.131Z,9.69
2022-12-24T18:09:14.195Z,9.69
2022-12-24T18:11:40.951Z,9.50
2022-12-24T18:14:08.263Z,9.63
2022-12-24T18:16:38.010Z,9.58
2022-12-24T18:19:08.161Z,9.62
2022-12-24T18:21:34.980Z,9.83
2022-12-24T18:24:02.152Z,9.76
2022-12-24T18:26:31.053Z,9.37
2022-12-24T18:29:00.218Z,9.94
2022-12-24T18:31:29.540Z,9.86
2022-12-24T18:33:56.600Z,9.73
2022-12-24T18:36:24.059Z,9.98
2022-12-24T18:38:51.675Z,9.91
2022-12-24T18:41:26.568Z,9.93
2022-12-24T18:43:54.058Z,10.10
2022-12-24T18:46:27.000Z,9.86
2022-12-24T18:48:57.695Z,10.04
2022-12-24T18:51:26.864Z,10.34
2022-12-24T18:53:53.679Z,10.35
2022-12-24T18:56:23.073Z,10.41
2022-12-24T18:58:54.127Z,10.29
2022-12-24T19:01:30.212Z,9.92
2022-12-24T19:03:58.341Z,10.02
2022-12-24T19:06:25.424Z,9.89
2022-12-24T19:09:01.863Z,10.12
2022-12-24T19:11:31.579Z,10.28
2022-12-24T19:13:59.423Z,9.92
2022-12-24T19:16:27.700Z,9.82
2022-12-24T19:18:55.122Z,9.91
2022-12-24T19:21:22.053Z,9.63
2022-12-24T19:23:49.142Z,9.97
2022-12-24T19:26:17.476Z,10.24
2022-12-24T19:28:45.914Z,10.19
2022-12-24T19:31:15.877Z,9.76
2022-12-24T19:33:45.253Z,9.87
2022-12-24T19:36:16.061Z,10.09
2022-12-24T19:38:43.613Z,10.05
2022-12-24T19:41:21.813Z,10.03
2022-12-24T19:43:50.852Z,9.97
2022-12-24T19:46:19.915Z,9.88
2022-12-24T19:48:52.285Z,9.82
2022-12-24T19:51:20.273Z,9.68
2022-12-24T19:53:47.988Z,9.60
2022-12-24T19:56:17.058Z,9.75
2022-12-24T19:58:44.491Z,9.85
2022-12-24T20:01:15.947Z,10.15
2022-12-24T20:03:44.750Z,9.82
2022-12-24T20:06:12.687Z,9.90
2022-12-24T20:08:40.323Z,9.94
2022-12-24T20:11:08.939Z,10.10
2022-12-24T20:13:36.711Z,10.21
2022-12-24T20:16:10.300Z,10.39
2022-12-24T20:18:37.356Z,10.33
2022-12-24T20:21:07.129Z,10.45
2022-12-24T20:23:33.997Z,10.51
2022-12-24T20:26:03.224Z,10.49
2022-12-24T20:28:35.325Z,10.34
2022-12-24T20:31:28.467Z,10.69
2022-12-24T20:34:00.285Z,10.85
2022-12-24T20:36:28.819Z,10.78
2022-12-24T20:38:55.837Z,10.80
2022-12-24T20:41:24.003Z,10.77
2022-12-24T20:43:51.042Z,10.68
2022-12-24T20:46:20.897Z,10.67
2022-12-24T20:48:49.581Z,10.71
2022-12-24T20:51:23.803Z,10.59
2022-12-24T20:53:53.680Z,10.62
2022-12-24T20:56:20.692Z,10.77
2022-12-24T20:58:48.092Z,10.76
2022-12-24T21:01:19.585Z,10.78
2022-12-24T21:03:47.224Z,10.76
2022-12-24T21:06:15.655Z,10.83
2022-12-24T21:08:42.919Z,10.64
2022-12-24T21:11:28.598Z,10.57
2022-12-24T21:13:56.827Z,10.67
2022-12-24T21:16:23.792Z,10.57
2022-12-24T21:18:50.639Z,10.59
2022-12-24T21:21:18.580Z,10.62
2022-12-24T21:23:45.436Z,10.51
2022-12-24T21:26:12.542Z,10.52
2022-12-24T21:28:39.351Z,10.59
2022-12-24T21:31:14.387Z,10.62
2022-12-24T21:33:42.243Z,10.59
2022-12-24T21:36:11.918Z,10.75
2022-12-24T21:38:38.920Z,10.62
2022-12-24T21:41:15.854Z,10.42
2022-12-24T21:43:43.406Z,10.49
2022-12-24T21:46:22.253Z,10.60
2022-12-24T21:49:09.903Z,10.49
2022-12-24T21:51:37.002Z,10.22
2022-12-24T21:54:22.537Z,10.33
2022-12-24T21:57:09.260Z,10.20
2022-12-24T21:59:36.073Z,10.04
2022-12-24T22:02:04.115Z,10.03
2022-12-24T22:04:32.269Z,10.32
2022-12-24T22:07:18.137Z,10.16
2022-12-24T22:10:03.826Z,10.13
2022-12-24T22:12:33.289Z,10.37
2022-12-24T22:15:00.597Z,10.16
2022-12-24T22:17:28.512Z,9.88
2022-12-24T22:19:55.622Z,9.61
2022-12-24T22:22:23.602Z,9.68
2022-12-24T22:24:50.969Z,9.39
2022-12-24T22:27:17.835Z,9.55
2022-12-24T22:29:44.796Z,10.29
2022-12-24T22:34:56.052Z,9.93
2022-12-24T22:37:22.832Z,10.14
2022-12-24T22:39:49.785Z,9.85
2022-12-24T22:42:16.975Z,9.78
2022-12-24T22:44:43.641Z,9.51
2022-12-24T22:47:10.468Z,9.56
2022-12-24T22:49:37.746Z,9.75
2022-12-24T22:52:04.603Z,10.09
2022-12-24T22:54:31.491Z,10.25
2022-12-24T22:56:58.287Z,10.05
2022-12-24T22:59:25.154Z,10.07
2022-12-24T23:01:52.914Z,9.95
2022-12-24T23:04:19.828Z,9.98
2022-12-24T23:06:47.923Z,9.94
2022-12-24T23:09:16.043Z,9.82
2022-12-24T23:11:44.560Z,9.86
2022-12-24T23:14:35.964Z,9.80
2022-12-24T23:17:03.079Z,9.57
2022-12-24T23:19:31.950Z,9.65
2022-12-24T23:21:58.870Z,9.76
2022-12-24T23:24:26.155Z,9.75
2022-12-24T23:26:53.135Z,9.59
2022-12-24T23:29:19.925Z,9.86
2022-12-24T23:31:46.712Z,10.32
2022-12-24T23:34:13.361Z,10.16
2022-12-24T23:36:40.238Z,10.22
2022-12-24T23:39:07.024Z,10.05
2022-12-24T23:41:34.893Z,10.00
2022-12-24T23:44:01.572Z,10.12
2022-12-24T23:46:28.489Z,9.89
2022-12-24T23:48:55.800Z,10.09
2022-12-24T23:51:25.205Z,10.07
2022-12-24T23:53:53.741Z,10.13
2022-12-24T23:56:21.831Z,10.46
2022-12-24T23:58:48.767Z,10.15
